Terminal Aerodrome Forecast
Issued by NWS Tampa Bay Area, FL

Home | Current Version | Previous Version | Text Only | Print | Product List | Glossary On
Versions: 1 2 3 4 5 6 7 8 9 10 11 12 13 14 15 16 17 18
000
FTUS42 KTBW 021130
TAFSRQ
TAF
KSRQ 021130Z 0212/0312 21010KT P6SM VCSH SCT025 OVC080
      TEMPO 0212/0214 BKN025
     FM021400 23013G22KT P6SM VCSH SCT025 BKN050 OVC100
      TEMPO 0214/0217 VRB15G25KT 3SM +SHRA BKN025
     FM021700 23015G25KT 6SM -RA VCTS SCT025CB OVC050
     FM030200 23010KT P6SM -RA VCTS SCT025CB BKN035 OVC060=

USA.gov is the U.S. government's official web portal to all federal, state and local government web resources and services.